createdAt,value
2019-01-12T00:03:34.725Z,97.04
2019-01-12T00:08:38.798Z,97.20
2019-01-12T00:11:08.232Z,97.01
2019-01-12T00:13:37.513Z,96.84
2019-01-12T00:16:07.209Z,96.68
2019-01-12T00:18:36.480Z,96.55
2019-01-12T00:21:06.157Z,96.67
2019-01-12T00:23:35.447Z,96.72
2019-01-12T00:26:05.206Z,97.00
2019-01-12T00:28:34.499Z,97.19
2019-01-12T00:31:04.103Z,97.53
2019-01-12T00:33:33.402Z,97.51
2019-01-12T00:36:03.047Z,97.35
2019-01-12T00:38:32.322Z,97.23
2019-01-12T00:41:02.055Z,97.05
2019-01-12T00:43:31.343Z,96.90
2019-01-12T00:46:01.107Z,97.10
2019-01-12T00:48:30.405Z,96.98
2019-01-12T00:50:59.965Z,96.85
2019-01-12T00:53:29.261Z,96.83
2019-01-12T00:55:58.898Z,97.27
2019-01-12T00:58:28.213Z,97.38
2019-01-12T01:00:57.813Z,97.15
2019-01-12T01:03:27.130Z,97.07
2019-01-12T01:05:56.434Z,97.29
2019-01-12T01:08:25.903Z,97.32
2019-01-12T01:10:55.246Z,97.34
2019-01-12T01:13:24.707Z,97.19
2019-01-12T01:16:12.990Z,97.07
2019-01-12T01:18:42.293Z,96.97
2019-01-12T01:21:11.692Z,97.09
2019-01-12T01:23:40.981Z,97.18
2019-01-12T01:28:58.594Z,97.70
2019-01-12T01:31:27.903Z,97.94
2019-01-12T01:33:57.375Z,98.11
2019-01-12T01:36:26.667Z,98.10
2019-01-12T01:38:56.175Z,98.10
2019-01-12T01:41:25.584Z,98.30
2019-01-12T01:43:55.057Z,98.11
2019-01-12T01:46:24.355Z,98.13
2019-01-12T01:51:42.338Z,98.13
2019-01-12T01:54:11.635Z,98.39
2019-01-12T01:56:41.187Z,98.49
2019-01-12T01:59:10.485Z,98.53
2019-01-12T02:01:40.082Z,98.39
2019-01-12T02:04:09.399Z,98.22
2019-01-12T02:06:38.885Z,98.08
2019-01-12T02:09:48.269Z,97.92
2019-01-12T02:12:17.703Z,98.07
2019-01-12T02:14:47.006Z,98.26
2019-01-12T02:17:16.402Z,98.24
2019-01-12T02:19:45.697Z,98.04
2019-01-12T02:22:15.286Z,98.15
2019-01-12T02:24:44.566Z,98.16
2019-01-12T02:30:02.354Z,98.32
2019-01-12T02:32:31.653Z,98.25
2019-01-12T02:35:01.313Z,98.18
2019-01-12T02:37:30.592Z,97.95
2019-01-12T02:40:00.354Z,98.30
2019-01-12T02:42:31.139Z,98.43
2019-01-12T02:45:00.509Z,98.69
2019-01-12T02:47:29.784Z,98.75
2019-01-12T02:49:59.201Z,98.98
2019-01-12T02:52:28.506Z,98.87
2019-01-12T02:54:58.164Z,99.30
2019-01-12T02:57:27.483Z,99.34
2019-01-12T02:59:56.863Z,99.18
2019-01-12T03:02:26.145Z,99.31
2019-01-12T03:04:55.532Z,99.17
2019-01-12T03:07:24.836Z,99.14
2019-01-12T03:10:13.472Z,99.30
2019-01-12T03:15:32.041Z,99.76
2019-01-12T03:18:01.353Z,99.57
2019-01-12T03:20:30.994Z,99.34
2019-01-12T03:23:00.318Z,99.40
2019-01-12T03:25:29.844Z,99.54
2019-01-12T03:27:59.121Z,100.00
2019-01-12T03:30:28.733Z,100.00
2019-01-12T03:33:17.237Z,100.00
2019-01-12T03:35:46.528Z,100.00
2019-01-12T03:38:16.228Z,100.00
2019-01-12T03:41:04.558Z,100.00
2019-01-12T03:43:33.856Z,100.00
2019-01-12T03:46:03.144Z,100.00
2019-01-12T03:48:32.616Z,100.00
2019-01-12T03:51:02.037Z,100.00
2019-01-12T03:53:31.407Z,100.00
2019-01-12T03:56:00.869Z,100.00
2019-01-12T03:58:30.201Z,100.00
2019-01-12T04:00:59.567Z,100.00
2019-01-12T04:03:28.928Z,100.00
2019-01-12T04:05:58.236Z,100.00
2019-01-12T04:08:27.529Z,100.00
2019-01-12T04:10:56.928Z,100.00
2019-01-12T04:13:26.266Z,100.00
2019-01-12T04:15:55.721Z,100.00
2019-01-12T04:18:25.103Z,100.00
2019-01-12T04:20:54.422Z,100.00
2019-01-12T04:23:23.776Z,100.00
2019-01-12T04:25:56.128Z,100.00
2019-01-12T04:28:25.462Z,100.00
2019-01-12T04:30:55.016Z,100.00
2019-01-12T04:33:24.314Z,100.00
2019-01-12T04:35:54.056Z,100.00
2019-01-12T04:38:23.355Z,100.00
2019-01-12T04:40:53.144Z,100.00
2019-01-12T04:46:10.703Z,100.00
2019-01-12T04:48:40.189Z,100.00
2019-01-12T04:51:09.561Z,100.00
2019-01-12T04:53:39.042Z,100.00
2019-01-12T04:56:08.406Z,100.00
2019-01-12T04:58:37.887Z,100.00
2019-01-12T05:01:07.175Z,100.00
2019-01-12T05:03:36.537Z,100.00
2019-01-12T05:06:05.840Z,100.00
2019-01-12T05:08:35.133Z,100.00
2019-01-12T05:11:04.472Z,100.00
2019-01-12T05:13:33.834Z,100.00
2019-01-12T05:16:03.123Z,100.00
2019-01-12T05:18:51.469Z,100.00
2019-01-12T05:21:20.775Z,100.00
2019-01-12T05:23:50.623Z,100.00
2019-01-12T05:26:19.908Z,100.00
2019-01-12T05:28:49.314Z,100.00
2019-01-12T05:31:37.668Z,100.00
2019-01-12T05:34:06.965Z,100.00
2019-01-12T05:36:36.363Z,100.00
2019-01-12T05:45:09.545Z,100.00
2019-01-12T05:47:39.119Z,100.00
2019-01-12T05:53:18.997Z,100.00
2019-01-12T05:55:48.297Z,100.00
2019-01-12T05:58:17.595Z,100.00
2019-01-12T06:00:47.102Z,100.00
2019-01-12T06:03:16.400Z,100.00
2019-01-12T06:05:45.745Z,100.00
2019-01-12T06:08:15.070Z,100.00
2019-01-12T06:10:44.417Z,100.00
2019-01-12T06:13:13.747Z,100.00
2019-01-12T06:15:43.149Z,100.00
2019-01-12T06:18:12.478Z,100.00
2019-01-12T06:20:41.833Z,100.00
2019-01-12T06:23:11.216Z,100.00
2019-01-12T06:25:40.563Z,100.00
2019-01-12T06:28:09.891Z,100.00
2019-01-12T06:30:39.265Z,100.00
2019-01-12T06:33:08.792Z,100.00
2019-01-12T06:35:38.097Z,100.00
2019-01-12T06:38:07.436Z,100.00
2019-01-12T06:40:36.861Z,100.00
2019-01-12T06:43:25.319Z,100.00
2019-01-12T06:45:54.615Z,100.00
2019-01-12T06:48:23.931Z,100.00
2019-01-12T06:51:12.293Z,100.00
2019-01-12T06:53:41.586Z,100.00
2019-01-12T06:56:11.163Z,100.00
2019-01-12T06:58:40.427Z,100.00
2019-01-12T07:01:09.728Z,100.00
2019-01-12T07:03:39.170Z,100.00
2019-01-12T07:06:08.504Z,100.00
2019-01-12T07:08:38.000Z,100.00
2019-01-12T07:11:07.300Z,100.00
2019-01-12T07:13:36.761Z,100.00
2019-01-12T07:16:06.074Z,100.00
2019-01-12T07:18:35.504Z,100.00
2019-01-12T07:21:16.412Z,100.00
2019-01-12T07:23:45.760Z,100.00
2019-01-12T07:26:17.674Z,100.00
2019-01-12T07:28:46.784Z,100.00
2019-01-12T07:31:16.091Z,100.00
2019-01-12T07:33:45.441Z,100.00
2019-01-12T07:36:33.914Z,100.00
2019-01-12T07:41:53.228Z,100.00
2019-01-12T07:44:41.550Z,100.00
2019-01-12T07:47:11.228Z,100.00
2019-01-12T07:49:59.662Z,100.00
2019-01-12T07:52:28.965Z,100.00
2019-01-12T07:54:58.424Z,100.00
2019-01-12T07:57:27.816Z,100.00
2019-01-12T07:59:57.474Z,100.00
2019-01-12T08:02:26.774Z,100.00
2019-01-12T08:04:56.115Z,100.00
2019-01-12T08:07:25.412Z,100.00
2019-01-12T08:09:55.305Z,100.00
2019-01-12T08:12:24.580Z,100.00
2019-01-12T08:15:12.917Z,100.00
2019-01-12T08:17:42.293Z,100.00
2019-01-12T08:20:11.915Z,100.00
2019-01-12T08:22:41.584Z,100.00
2019-01-12T08:28:25.220Z,100.00
2019-01-12T08:30:54.693Z,100.00
2019-01-12T08:33:23.978Z,100.00
2019-01-12T08:35:53.507Z,100.00
2019-01-12T08:38:22.803Z,100.00
2019-01-12T08:40:52.287Z,100.00
2019-01-12T08:43:21.567Z,100.00
2019-01-12T08:45:51.092Z,100.00
2019-01-12T08:48:20.410Z,100.00
2019-01-12T08:50:49.849Z,100.00
2019-01-12T08:53:19.153Z,100.00
2019-01-12T08:55:48.558Z,100.00
2019-01-12T08:58:17.913Z,100.00
2019-01-12T09:00:47.311Z,100.00
2019-01-12T09:03:16.684Z,100.00
2019-01-12T09:06:05.040Z,100.00
2019-01-12T09:08:34.428Z,100.00
2019-01-12T09:11:03.879Z,100.00
2019-01-12T09:13:33.272Z,100.00
2019-01-12T09:16:02.581Z,100.00
2019-01-12T09:18:32.321Z,100.00
2019-01-12T09:21:01.657Z,100.00
2019-01-12T09:23:31.127Z,100.00
2019-01-12T09:26:00.427Z,100.00
2019-01-12T09:28:29.962Z,100.00
2019-01-12T09:30:59.270Z,100.00
2019-01-12T09:33:47.602Z,100.00
2019-01-12T09:36:17.190Z,100.00
2019-01-12T09:39:07.737Z,100.00
2019-01-12T09:41:37.222Z,100.00
2019-01-12T09:44:25.565Z,100.00
2019-01-12T09:46:55.257Z,100.00
2019-01-12T09:49:43.917Z,100.00
2019-01-12T09:52:13.215Z,100.00
2019-01-12T09:57:36.606Z,100.00
2019-01-12T10:00:46.279Z,100.00
2019-01-12T10:03:15.577Z,100.00
2019-01-12T10:05:44.983Z,100.00
2019-01-12T10:08:14.398Z,100.00
2019-01-12T10:10:43.912Z,100.00
2019-01-12T10:13:13.244Z,100.00
2019-01-12T10:18:17.554Z,100.00
2019-01-12T10:20:46.874Z,100.00
2019-01-12T10:23:16.183Z,100.00
2019-01-12T10:26:04.622Z,100.00
2019-01-12T10:28:34.052Z,100.00
2019-01-12T10:31:03.396Z,100.00
2019-01-12T10:33:32.874Z,100.00
2019-01-12T10:36:02.268Z,100.00
2019-01-12T10:38:31.841Z,100.00
2019-01-12T10:41:01.196Z,100.00
2019-01-12T10:43:30.618Z,100.00
2019-01-12T10:46:00.036Z,100.00
2019-01-12T10:48:29.423Z,100.00
2019-01-12T10:50:58.724Z,100.00
2019-01-12T10:53:28.333Z,100.00
2019-01-12T10:56:16.619Z,100.00
2019-01-12T10:58:45.938Z,100.00
2019-01-12T11:01:15.364Z,100.00
2019-01-12T11:03:44.755Z,100.00
2019-01-12T11:06:14.378Z,100.00
2019-01-12T11:08:43.712Z,100.00
2019-01-12T11:11:13.437Z,100.00
2019-01-12T11:13:42.764Z,100.00
2019-01-12T11:19:00.880Z,100.00
2019-01-12T11:21:30.478Z,99.94
2019-01-12T11:24:00.142Z,99.76
2019-01-12T11:26:29.587Z,99.66
2019-01-12T11:28:59.173Z,99.30
2019-01-12T11:31:28.479Z,98.95
2019-01-12T11:33:58.220Z,98.87
2019-01-12T11:36:27.541Z,98.47
2019-01-12T11:38:57.455Z,98.51
2019-01-12T11:41:45.931Z,98.36
2019-01-12T11:44:15.281Z,98.35
2019-01-12T11:46:48.880Z,98.10
2019-01-12T11:49:20.575Z,98.06
2019-01-12T11:51:49.975Z,97.94
2019-01-12T11:54:19.379Z,97.61
2019-01-12T11:56:48.669Z,97.39
2019-01-12T11:59:18.511Z,97.44
2019-01-12T12:01:47.819Z,97.13
2019-01-12T12:04:17.181Z,97.29
2019-01-12T12:06:46.577Z,97.12
2019-01-12T12:09:16.068Z,96.90
2019-01-12T12:11:45.370Z,96.79
2019-01-12T12:14:14.761Z,96.99
2019-01-12T12:16:44.125Z,96.96
2019-01-12T12:19:13.649Z,97.07
2019-01-12T12:21:42.997Z,97.01
2019-01-12T12:24:12.650Z,97.02
2019-01-12T12:26:41.962Z,96.90
2019-01-12T12:29:11.332Z,97.01
2019-01-12T12:31:40.617Z,97.09
2019-01-12T12:34:10.160Z,97.07
2019-01-12T12:36:39.573Z,97.23
2019-01-12T12:39:09.082Z,97.18
2019-01-12T12:41:38.374Z,97.33
2019-01-12T12:44:07.844Z,97.38
2019-01-12T12:46:37.129Z,97.49
2019-01-12T12:49:25.449Z,97.51
2019-01-12T12:52:06.082Z,97.69
2019-01-12T12:54:35.479Z,97.92
2019-01-12T12:57:04.924Z,97.97
2019-01-12T12:59:34.249Z,98.10
2019-01-12T13:02:22.465Z,98.26
2019-01-12T13:04:51.756Z,98.32
2019-01-12T13:07:21.218Z,98.35
2019-01-12T13:09:50.525Z,98.52
2019-01-12T13:12:19.966Z,98.70
2019-01-12T13:14:49.240Z,99.01
2019-01-12T13:17:18.706Z,99.10
2019-01-12T13:19:48.084Z,99.14
2019-01-12T13:22:17.389Z,99.01
2019-01-12T13:24:46.714Z,99.19
2019-01-12T13:27:16.133Z,99.18
2019-01-12T13:29:45.456Z,99.07
2019-01-12T13:32:15.072Z,99.10
2019-01-12T13:34:44.381Z,99.03
2019-01-12T13:37:13.933Z,98.97
2019-01-12T13:39:43.256Z,98.91
2019-01-12T13:42:12.872Z,98.68
2019-01-12T13:44:42.182Z,98.70
2019-01-12T13:47:30.599Z,98.68
2019-01-12T13:50:00.264Z,98.80
2019-01-12T13:52:29.520Z,99.01
2019-01-12T13:54:59.208Z,98.98
2019-01-12T13:57:28.512Z,98.91
2019-01-12T13:59:58.046Z,98.94
2019-01-12T14:02:27.350Z,98.91
2019-01-12T14:04:56.643Z,98.94
2019-01-12T14:10:15.669Z,98.77
2019-01-12T14:16:12.866Z,98.96
2019-01-12T14:18:42.180Z,98.91
2019-01-12T14:21:11.688Z,99.00
2019-01-12T14:23:41.023Z,99.10
2019-01-12T14:26:10.429Z,99.05
2019-01-12T14:28:39.735Z,99.01
2019-01-12T14:31:09.317Z,98.98
2019-01-12T14:33:38.610Z,99.06
2019-01-12T14:36:08.150Z,99.03
2019-01-12T14:38:37.450Z,98.89
2019-01-12T14:41:06.975Z,98.87
2019-01-12T14:43:36.302Z,98.75
2019-01-12T14:46:05.735Z,98.79
2019-01-12T14:48:35.026Z,98.79
2019-01-12T14:51:04.581Z,98.71
2019-01-12T14:53:33.895Z,98.73
2019-01-12T14:56:03.262Z,98.85
2019-01-12T14:58:32.654Z,99.04
2019-01-12T15:01:02.120Z,99.13
2019-01-12T15:03:31.576Z,99.14
2019-01-12T15:06:01.115Z,99.13
2019-01-12T15:08:30.475Z,99.29
2019-01-12T15:11:00.109Z,99.29
2019-01-12T15:13:29.414Z,99.22
2019-01-12T15:15:58.941Z,99.29
2019-01-12T15:18:28.237Z,99.40
2019-01-12T15:20:57.948Z,99.52
2019-01-12T15:23:27.245Z,99.60
2019-01-12T15:25:56.725Z,99.77
2019-01-12T15:28:26.060Z,99.78
2019-01-12T15:33:44.115Z,99.79
2019-01-12T15:36:34.021Z,99.84
2019-01-12T15:39:03.627Z,99.84
2019-01-12T15:41:33.331Z,100.00
2019-01-12T15:44:02.665Z,99.91
2019-01-12T15:46:32.211Z,99.93
2019-01-12T15:49:01.490Z,99.82
2019-01-12T15:51:31.305Z,99.90
2019-01-12T15:54:00.609Z,99.89
2019-01-12T15:56:30.161Z,99.83
2019-01-12T16:01:47.790Z,99.49
2019-01-12T16:04:17.368Z,99.31
2019-01-12T16:06:46.708Z,99.39
2019-01-12T16:09:16.197Z,99.31
2019-01-12T16:11:45.474Z,99.17
2019-01-12T16:14:15.038Z,99.14
2019-01-12T16:16:44.364Z,98.93
2019-01-12T16:19:13.832Z,98.81
2019-01-12T16:22:02.246Z,98.97
2019-01-12T16:27:19.827Z,98.87
2019-01-12T16:29:49.238Z,98.79
2019-01-12T16:34:53.948Z,98.84
2019-01-12T16:37:23.260Z,99.28
2019-01-12T16:39:52.633Z,99.49
2019-01-12T16:42:21.992Z,99.88
2019-01-12T16:44:51.288Z,100.00
2019-01-12T16:47:20.649Z,100.00
2019-01-12T16:49:49.961Z,100.00
2019-01-12T16:52:38.259Z,99.87
2019-01-12T16:55:09.004Z,99.67
2019-01-12T16:57:38.305Z,99.41
2019-01-12T17:02:49.202Z,99.10
2019-01-12T17:05:18.540Z,99.05
2019-01-12T17:13:03.972Z,98.37
2019-01-12T17:15:34.866Z,98.02
2019-01-12T17:18:04.746Z,97.73
2019-01-12T17:20:53.344Z,97.61
2019-01-12T17:23:22.830Z,97.46
2019-01-12T17:25:52.268Z,97.37
2019-01-12T17:28:21.795Z,97.28
2019-01-12T17:30:51.108Z,97.35
2019-01-12T17:33:20.534Z,97.54
2019-01-12T17:35:49.833Z,97.61
2019-01-12T17:38:19.180Z,97.58
2019-01-12T17:40:48.472Z,97.54
2019-01-12T17:43:18.192Z,97.62
2019-01-12T17:45:47.473Z,97.54
2019-01-12T17:48:17.062Z,97.57
2019-01-12T17:50:46.368Z,97.55
2019-01-12T17:53:15.804Z,97.50
2019-01-12T17:55:45.120Z,97.64
2019-01-12T17:58:14.814Z,97.66
2019-01-12T18:01:02.752Z,97.62
2019-01-12T18:03:32.105Z,97.64
2019-01-12T18:06:01.445Z,97.72
2019-01-12T18:08:30.741Z,97.84
2019-01-12T18:11:00.119Z,97.67
2019-01-12T18:13:29.472Z,97.46
2019-01-12T18:16:17.837Z,97.49
2019-01-12T18:18:47.139Z,97.60
2019-01-12T18:21:16.420Z,97.48
2019-01-12T18:24:04.676Z,97.27
2019-01-12T18:26:34.025Z,97.27
2019-01-12T18:29:03.361Z,97.32
2019-01-12T18:31:32.751Z,97.24
2019-01-12T18:34:02.100Z,97.22
2019-01-12T18:36:31.419Z,97.09
2019-01-12T18:39:01.014Z,97.14
2019-01-12T18:41:30.364Z,96.90
2019-01-12T18:43:59.822Z,96.88
2019-01-12T18:46:29.177Z,96.76
2019-01-12T18:49:17.527Z,96.81
2019-01-12T18:51:47.162Z,96.76
2019-01-12T18:54:16.462Z,96.93
2019-01-12T18:59:34.607Z,96.80
2019-01-12T19:02:04.065Z,96.93
2019-01-12T19:04:33.493Z,96.99
2019-01-12T19:07:02.884Z,97.09
2019-01-12T19:09:32.477Z,97.07
2019-01-12T19:12:01.830Z,97.03
2019-01-12T19:14:31.518Z,97.15
2019-01-12T19:17:20.375Z,97.31
2019-01-12T19:22:24.574Z,97.25
2019-01-12T19:24:54.101Z,97.19
2019-01-12T19:27:23.538Z,97.24
2019-01-12T19:29:53.051Z,97.22
2019-01-12T19:32:22.370Z,97.16
2019-01-12T19:34:51.889Z,97.23
2019-01-12T19:37:21.250Z,97.29
2019-01-12T19:39:50.860Z,97.37
2019-01-12T19:42:20.226Z,97.29
2019-01-12T19:44:49.920Z,97.58
2019-01-12T19:47:19.243Z,97.57
2019-01-12T19:49:48.800Z,97.84
2019-01-12T19:52:18.100Z,97.99
2019-01-12T19:54:47.587Z,98.09
2019-01-12T19:57:16.988Z,98.09
2019-01-12T20:02:50.338Z,98.15
2019-01-12T20:05:19.633Z,98.11
2019-01-12T20:07:49.195Z,98.11
2019-01-12T20:10:19.373Z,98.02
2019-01-12T20:12:48.968Z,98.13
2019-01-12T20:15:20.933Z,98.35
2019-01-12T20:17:50.289Z,98.45
2019-01-12T20:20:19.709Z,98.49
2019-01-12T20:22:50.265Z,98.52
2019-01-12T20:25:39.343Z,98.56
2019-01-12T20:28:29.100Z,98.55
2019-01-12T20:31:20.083Z,98.52
2019-01-12T20:34:27.547Z,98.52
2019-01-12T20:37:34.965Z,98.39
2019-01-12T20:40:32.357Z,98.11
2019-01-12T20:43:34.059Z,98.07
2019-01-12T20:46:41.414Z,97.93
2019-01-12T20:49:32.122Z,97.67
2019-01-12T20:52:48.239Z,97.72
2019-01-12T20:55:55.751Z,97.84
2019-01-12T20:59:03.133Z,97.67
2019-01-12T21:02:10.515Z,97.59
2019-01-12T21:05:17.858Z,97.55
2019-01-12T21:08:25.252Z,97.54
2019-01-12T21:11:32.586Z,97.55
2019-01-12T21:14:39.898Z,97.76
2019-01-12T21:17:11.027Z,97.72
2019-01-12T21:19:47.717Z,97.44
2019-01-12T21:22:11.463Z,97.55
2019-01-12T21:24:41.009Z,97.56
2019-01-12T21:27:29.386Z,97.48
2019-01-12T21:29:58.771Z,97.46
2019-01-12T21:32:28.127Z,97.39
2019-01-12T21:34:58.387Z,97.38
2019-01-12T21:37:27.850Z,97.35
2019-01-12T21:39:57.145Z,97.67
2019-01-12T21:42:26.511Z,97.62
2019-01-12T21:44:56.066Z,97.57
2019-01-12T21:47:25.370Z,98.30
2019-01-12T21:49:54.716Z,98.30
2019-01-12T21:52:24.021Z,98.27
2019-01-12T21:54:53.467Z,98.45
2019-01-12T21:57:22.786Z,99.28
2019-01-12T21:59:52.285Z,99.95
2019-01-12T22:02:21.619Z,100.00
2019-01-12T22:04:51.101Z,100.00
2019-01-12T22:07:20.442Z,100.00
2019-01-12T22:12:38.398Z,100.00
2019-01-12T22:15:08.919Z,100.00
2019-01-12T22:17:38.282Z,100.00
2019-01-12T22:20:10.134Z,100.00
2019-01-12T22:22:39.617Z,100.00
2019-01-12T22:25:27.956Z,100.00
2019-01-12T22:28:09.275Z,100.00
2019-01-12T22:30:50.108Z,100.00
2019-01-12T22:33:19.417Z,100.00
2019-01-12T22:35:49.138Z,100.00
2019-01-12T22:38:18.462Z,100.00
2019-01-12T22:40:47.889Z,100.00
2019-01-12T22:43:17.205Z,100.00
2019-01-12T22:51:10.194Z,100.00
2019-01-12T22:53:39.523Z,100.00
2019-01-12T22:56:09.248Z,100.00
2019-01-12T22:58:38.551Z,100.00
2019-01-12T23:01:46.016Z,100.00
2019-01-12T23:04:17.461Z,100.00
2019-01-12T23:06:47.076Z,100.00
2019-01-12T23:12:04.879Z,100.00
2019-01-12T23:14:34.424Z,100.00
2019-01-12T23:17:03.721Z,100.00
2019-01-12T23:19:33.365Z,100.00
2019-01-12T23:22:02.665Z,100.00
2019-01-12T23:24:32.199Z,100.00
2019-01-12T23:27:01.506Z,100.00
2019-01-12T23:32:20.184Z,100.00
2019-01-12T23:34:49.483Z,100.00
2019-01-12T23:37:18.948Z,100.00
2019-01-12T23:39:48.312Z,100.00
2019-01-12T23:45:07.944Z,100.00
2019-01-12T23:47:37.234Z,100.00
2019-01-12T23:50:07.648Z,100.00
2019-01-12T23:52:37.046Z,100.00
2019-01-12T23:55:06.602Z,100.00
2019-01-12T23:57:35.942Z,100.00
